sensor_id;sensor_type;location;lat;lon;timestamp;P1;durP1;ratioP1;P2;durP2;ratioP2
18574;SDS011;9417;16.484;102.872;2023-07-09T00:27:07;15.80;;;11.55;;
18574;SDS011;9417;16.484;102.872;2023-07-09T00:29:16;13.80;;;11.45;;
18574;SDS011;9417;16.484;102.872;2023-07-09T00:31:23;17.70;;;12.23;;
18574;SDS011;9417;16.484;102.872;2023-07-09T00:33:31;14.80;;;10.23;;
18574;SDS011;9417;16.484;102.872;2023-07-09T00:35:38;14.60;;;9.15;;
18574;SDS011;9417;16.484;102.872;2023-07-09T00:37:46;14.90;;;10.18;;
18574;SDS011;9417;16.484;102.872;2023-07-09T00:39:53;12.30;;;9.52;;
18574;SDS011;9417;16.484;102.872;2023-07-09T00:42:00;12.30;;;10.30;;
18574;SDS011;9417;16.484;102.872;2023-07-09T00:44:20;13.55;;;10.95;;
18574;SDS011;9417;16.484;102.872;2023-07-09T00:49:25;14.75;;;10.30;;
18574;SDS011;9417;16.484;102.872;2023-07-09T00:51:36;14.43;;;10.98;;
18574;SDS011;9417;16.484;102.872;2023-07-09T00:53:47;14.60;;;10.15;;
18574;SDS011;9417;16.484;102.872;2023-07-09T00:56:02;11.50;;;9.82;;
18574;SDS011;9417;16.484;102.872;2023-07-09T00:58:13;17.98;;;10.50;;
18574;SDS011;9417;16.484;102.872;2023-07-09T01:00:24;11.98;;;9.55;;
18574;SDS011;9417;16.484;102.872;2023-07-09T01:02:34;12.32;;;9.65;;
18574;SDS011;9417;16.484;102.872;2023-07-09T01:06:53;15.93;;;11.13;;
18574;SDS011;9417;16.484;102.872;2023-07-09T01:09:01;14.07;;;9.90;;
18574;SDS011;9417;16.484;102.872;2023-07-09T01:11:15;13.75;;;10.43;;
18574;SDS011;9417;16.484;102.872;2023-07-09T01:13:25;14.60;;;11.30;;
18574;SDS011;9417;16.484;102.872;2023-07-09T01:15:35;14.10;;;10.88;;
18574;SDS011;9417;16.484;102.872;2023-07-09T01:17:46;12.13;;;10.52;;
18574;SDS011;9417;16.484;102.872;2023-07-09T01:19:57;15.13;;;11.15;;
18574;SDS011;9417;16.484;102.872;2023-07-09T01:22:06;13.75;;;11.07;;
18574;SDS011;9417;16.484;102.872;2023-07-09T01:24:15;13.00;;;10.25;;
18574;SDS011;9417;16.484;102.872;2023-07-09T01:26:41;13.05;;;11.23;;
18574;SDS011;9417;16.484;102.872;2023-07-09T01:28:48;12.38;;;9.88;;
18574;SDS011;9417;16.484;102.872;2023-07-09T01:30:57;14.40;;;9.85;;
18574;SDS011;9417;16.484;102.872;2023-07-09T01:33:12;10.88;;;9.73;;
18574;SDS011;9417;16.484;102.872;2023-07-09T01:35:19;13.10;;;9.90;;
18574;SDS011;9417;16.484;102.872;2023-07-09T01:37:30;9.85;;;8.75;;
18574;SDS011;9417;16.484;102.872;2023-07-09T01:39:38;11.23;;;10.05;;
18574;SDS011;9417;16.484;102.872;2023-07-09T01:41:47;15.02;;;10.93;;
18574;SDS011;9417;16.484;102.872;2023-07-09T01:43:54;15.52;;;10.40;;
18574;SDS011;9417;16.484;102.872;2023-07-09T01:46:02;12.20;;;10.65;;
18574;SDS011;9417;16.484;102.872;2023-07-09T01:48:11;13.23;;;9.40;;
18574;SDS011;9417;16.484;102.872;2023-07-09T01:50:19;10.77;;;9.18;;
18574;SDS011;9417;16.484;102.872;2023-07-09T01:52:25;13.35;;;10.52;;
18574;SDS011;9417;16.484;102.872;2023-07-09T01:54:38;12.25;;;10.00;;
18574;SDS011;9417;16.484;102.872;2023-07-09T01:56:46;12.07;;;9.27;;
18574;SDS011;9417;16.484;102.872;2023-07-09T01:58:53;11.38;;;10.27;;
18574;SDS011;9417;16.484;102.872;2023-07-09T02:01:04;14.73;;;10.30;;
18574;SDS011;9417;16.484;102.872;2023-07-09T02:03:11;15.77;;;10.55;;
18574;SDS011;9417;16.484;102.872;2023-07-09T02:05:21;11.95;;;9.85;;
18574;SDS011;9417;16.484;102.872;2023-07-09T02:07:28;11.73;;;9.60;;
18574;SDS011;9417;16.484;102.872;2023-07-09T02:09:35;12.10;;;9.20;;
18574;SDS011;9417;16.484;102.872;2023-07-09T02:11:45;11.52;;;9.85;;
18574;SDS011;9417;16.484;102.872;2023-07-09T02:13:52;13.52;;;10.13;;
18574;SDS011;9417;16.484;102.872;2023-07-09T02:15:59;13.00;;;9.90;;
18574;SDS011;9417;16.484;102.872;2023-07-09T02:18:07;12.73;;;10.10;;
18574;SDS011;9417;16.484;102.872;2023-07-09T02:20:14;12.07;;;9.80;;
18574;SDS011;9417;16.484;102.872;2023-07-09T02:22:22;15.07;;;10.32;;
18574;SDS011;9417;16.484;102.872;2023-07-09T02:24:29;14.68;;;10.15;;
18574;SDS011;9417;16.484;102.872;2023-07-09T02:26:38;21.25;;;19.45;;
18574;SDS011;9417;16.484;102.872;2023-07-09T02:28:46;16.75;;;15.23;;
18574;SDS011;9417;16.484;102.872;2023-07-09T02:30:53;17.63;;;15.73;;
18574;SDS011;9417;16.484;102.872;2023-07-09T02:33:00;14.43;;;11.48;;
18574;SDS011;9417;16.484;102.872;2023-07-09T02:35:08;22.63;;;19.98;;
18574;SDS011;9417;16.484;102.872;2023-07-09T02:37:15;17.40;;;12.50;;
18574;SDS011;9417;16.484;102.872;2023-07-09T02:39:22;14.35;;;12.15;;
18574;SDS011;9417;16.484;102.872;2023-07-09T02:41:29;15.38;;;11.90;;
18574;SDS011;9417;16.484;102.872;2023-07-09T02:43:39;19.95;;;11.88;;
18574;SDS011;9417;16.484;102.872;2023-07-09T02:45:46;14.65;;;10.98;;
18574;SDS011;9417;16.484;102.872;2023-07-09T02:47:53;17.05;;;10.75;;
18574;SDS011;9417;16.484;102.872;2023-07-09T02:50:00;14.00;;;10.95;;
18574;SDS011;9417;16.484;102.872;2023-07-09T02:52:08;14.10;;;11.38;;
18574;SDS011;9417;16.484;102.872;2023-07-09T02:54:15;15.60;;;12.15;;
18574;SDS011;9417;16.484;102.872;2023-07-09T02:56:22;16.77;;;11.95;;
18574;SDS011;9417;16.484;102.872;2023-07-09T02:58:30;14.52;;;11.63;;
18574;SDS011;9417;16.484;102.872;2023-07-09T03:00:38;13.68;;;11.27;;
18574;SDS011;9417;16.484;102.872;2023-07-09T03:02:45;11.93;;;10.73;;
18574;SDS011;9417;16.484;102.872;2023-07-09T03:04:53;15.05;;;12.07;;
18574;SDS011;9417;16.484;102.872;2023-07-09T03:07:00;12.18;;;10.93;;
18574;SDS011;9417;16.484;102.872;2023-07-09T03:09:07;13.43;;;11.23;;
18574;SDS011;9417;16.484;102.872;2023-07-09T03:11:13;12.93;;;11.60;;
18574;SDS011;9417;16.484;102.872;2023-07-09T03:13:22;12.15;;;9.05;;
18574;SDS011;9417;16.484;102.872;2023-07-09T03:15:29;12.43;;;9.13;;
18574;SDS011;9417;16.484;102.872;2023-07-09T03:17:38;12.57;;;10.18;;
18574;SDS011;9417;16.484;102.872;2023-07-09T03:19:45;9.90;;;8.57;;
18574;SDS011;9417;16.484;102.872;2023-07-09T03:21:52;10.73;;;9.68;;
18574;SDS011;9417;16.484;102.872;2023-07-09T03:23:59;11.65;;;9.57;;
18574;SDS011;9417;16.484;102.872;2023-07-09T03:26:07;15.98;;;10.15;;
18574;SDS011;9417;16.484;102.872;2023-07-09T03:28:14;13.00;;;9.45;;
18574;SDS011;9417;16.484;102.872;2023-07-09T03:30:21;13.35;;;10.20;;
18574;SDS011;9417;16.484;102.872;2023-07-09T03:32:30;11.15;;;9.10;;
18574;SDS011;9417;16.484;102.872;2023-07-09T03:34:39;12.32;;;9.65;;
18574;SDS011;9417;16.484;102.872;2023-07-09T03:36:46;13.90;;;10.55;;
18574;SDS011;9417;16.484;102.872;2023-07-09T03:38:53;13.05;;;9.95;;
18574;SDS011;9417;16.484;102.872;2023-07-09T03:40:59;13.82;;;10.25;;
18574;SDS011;9417;16.484;102.872;2023-07-09T03:43:06;13.35;;;10.70;;
18574;SDS011;9417;16.484;102.872;2023-07-09T03:45:13;12.27;;;10.38;;
18574;SDS011;9417;16.484;102.872;2023-07-09T03:47:21;11.80;;;9.98;;
18574;SDS011;9417;16.484;102.872;2023-07-09T03:49:28;9.95;;;8.88;;
18574;SDS011;9417;16.484;102.872;2023-07-09T03:51:37;10.23;;;9.23;;
18574;SDS011;9417;16.484;102.872;2023-07-09T03:53:44;10.13;;;8.00;;
18574;SDS011;9417;16.484;102.872;2023-07-09T03:55:52;10.60;;;8.35;;
18574;SDS011;9417;16.484;102.872;2023-07-09T03:58:00;12.93;;;8.30;;
18574;SDS011;9417;16.484;102.872;2023-07-09T04:00:08;8.38;;;7.53;;
18574;SDS011;9417;16.484;102.872;2023-07-09T04:02:18;10.20;;;7.65;;
18574;SDS011;9417;16.484;102.872;2023-07-09T04:04:25;10.55;;;7.85;;
18574;SDS011;9417;16.484;102.872;2023-07-09T04:06:33;11.35;;;10.23;;
18574;SDS011;9417;16.484;102.872;2023-07-09T04:08:44;10.60;;;9.57;;
18574;SDS011;9417;16.484;102.872;2023-07-09T04:10:52;10.55;;;9.13;;
18574;SDS011;9417;16.484;102.872;2023-07-09T04:13:00;12.77;;;8.77;;
18574;SDS011;9417;16.484;102.872;2023-07-09T04:15:07;10.30;;;9.05;;
18574;SDS011;9417;16.484;102.872;2023-07-09T04:17:16;12.07;;;8.80;;
18574;SDS011;9417;16.484;102.872;2023-07-09T04:19:23;11.90;;;9.25;;
18574;SDS011;9417;16.484;102.872;2023-07-09T04:21:31;10.73;;;9.38;;
18574;SDS011;9417;16.484;102.872;2023-07-09T04:23:38;9.95;;;9.05;;
18574;SDS011;9417;16.484;102.872;2023-07-09T04:25:47;12.95;;;9.02;;
18574;SDS011;9417;16.484;102.872;2023-07-09T04:27:54;9.38;;;7.75;;
18574;SDS011;9417;16.484;102.872;2023-07-09T04:30:02;9.48;;;8.05;;
18574;SDS011;9417;16.484;102.872;2023-07-09T04:32:11;9.93;;;8.75;;
18574;SDS011;9417;16.484;102.872;2023-07-09T04:34:19;10.75;;;9.65;;
18574;SDS011;9417;16.484;102.872;2023-07-09T04:36:26;11.30;;;10.10;;
18574;SDS011;9417;16.484;102.872;2023-07-09T04:38:34;9.02;;;8.13;;
18574;SDS011;9417;16.484;102.872;2023-07-09T04:40:41;8.30;;;7.50;;
18574;SDS011;9417;16.484;102.872;2023-07-09T04:42:50;9.30;;;8.10;;
18574;SDS011;9417;16.484;102.872;2023-07-09T04:44:57;9.52;;;8.38;;
18574;SDS011;9417;16.484;102.872;2023-07-09T04:47:04;9.73;;;8.18;;
18574;SDS011;9417;16.484;102.872;2023-07-09T04:49:11;12.13;;;9.90;;
18574;SDS011;9417;16.484;102.872;2023-07-09T04:51:18;11.40;;;10.05;;
18574;SDS011;9417;16.484;102.872;2023-07-09T04:53:25;12.30;;;11.05;;
18574;SDS011;9417;16.484;102.872;2023-07-09T04:55:32;11.18;;;9.93;;
18574;SDS011;9417;16.484;102.872;2023-07-09T04:57:39;11.73;;;10.52;;
18574;SDS011;9417;16.484;102.872;2023-07-09T04:59:48;11.10;;;10.07;;
18574;SDS011;9417;16.484;102.872;2023-07-09T05:01:55;12.63;;;9.27;;
18574;SDS011;9417;16.484;102.872;2023-07-09T05:04:02;10.05;;;9.15;;
18574;SDS011;9417;16.484;102.872;2023-07-09T05:06:11;10.38;;;9.15;;
18574;SDS011;9417;16.484;102.872;2023-07-09T05:08:20;9.70;;;8.98;;
18574;SDS011;9417;16.484;102.872;2023-07-09T05:10:27;10.25;;;9.35;;
18574;SDS011;9417;16.484;102.872;2023-07-09T05:12:34;10.05;;;9.23;;
18574;SDS011;9417;16.484;102.872;2023-07-09T05:14:42;10.60;;;9.60;;
18574;SDS011;9417;16.484;102.872;2023-07-09T05:16:51;10.05;;;9.15;;
18574;SDS011;9417;16.484;102.872;2023-07-09T05:19:00;9.63;;;8.70;;
18574;SDS011;9417;16.484;102.872;2023-07-09T05:21:07;10.25;;;9.15;;
18574;SDS011;9417;16.484;102.872;2023-07-09T05:23:14;10.43;;;9.43;;
18574;SDS011;9417;16.484;102.872;2023-07-09T05:25:22;11.48;;;9.45;;
18574;SDS011;9417;16.484;102.872;2023-07-09T05:27:31;9.35;;;8.52;;
18574;SDS011;9417;16.484;102.872;2023-07-09T05:29:39;10.35;;;9.35;;
18574;SDS011;9417;16.484;102.872;2023-07-09T05:31:46;10.00;;;8.98;;
18574;SDS011;9417;16.484;102.872;2023-07-09T05:33:55;10.23;;;9.32;;
18574;SDS011;9417;16.484;102.872;2023-07-09T05:36:04;9.15;;;8.27;;
18574;SDS011;9417;16.484;102.872;2023-07-09T05:38:11;11.20;;;9.90;;
18574;SDS011;9417;16.484;102.872;2023-07-09T05:40:19;11.05;;;9.05;;
18574;SDS011;9417;16.484;102.872;2023-07-09T05:42:29;10.75;;;8.90;;
18574;SDS011;9417;16.484;102.872;2023-07-09T05:44:36;8.98;;;8.07;;
18574;SDS011;9417;16.484;102.872;2023-07-09T05:46:44;9.90;;;7.97;;
18574;SDS011;9417;16.484;102.872;2023-07-09T05:48:52;7.45;;;6.43;;
18574;SDS011;9417;16.484;102.872;2023-07-09T05:51:01;8.98;;;7.68;;
18574;SDS011;9417;16.484;102.872;2023-07-09T05:53:09;9.43;;;6.88;;
18574;SDS011;9417;16.484;102.872;2023-07-09T05:55:16;15.98;;;14.55;;
18574;SDS011;9417;16.484;102.872;2023-07-09T05:57:26;8.20;;;7.35;;
18574;SDS011;9417;16.484;102.872;2023-07-09T05:59:33;8.80;;;6.63;;
18574;SDS011;9417;16.484;102.872;2023-07-09T06:01:41;7.70;;;6.82;;
18574;SDS011;9417;16.484;102.872;2023-07-09T06:03:48;8.38;;;6.88;;
18574;SDS011;9417;16.484;102.872;2023-07-09T06:05:57;9.32;;;6.38;;
18574;SDS011;9417;16.484;102.872;2023-07-09T06:08:05;8.48;;;7.55;;
18574;SDS011;9417;16.484;102.872;2023-07-09T06:10:12;9.52;;;7.78;;
18574;SDS011;9417;16.484;102.872;2023-07-09T06:12:20;8.52;;;6.90;;
18574;SDS011;9417;16.484;102.872;2023-07-09T06:14:26;7.30;;;6.63;;
18574;SDS011;9417;16.484;102.872;2023-07-09T06:16:34;8.50;;;7.30;;
18574;SDS011;9417;16.484;102.872;2023-07-09T06:18:44;8.63;;;6.53;;
18574;SDS011;9417;16.484;102.872;2023-07-09T06:20:54;9.43;;;6.85;;
18574;SDS011;9417;16.484;102.872;2023-07-09T06:23:03;7.72;;;6.55;;
18574;SDS011;9417;16.484;102.872;2023-07-09T06:25:11;8.00;;;7.05;;
18574;SDS011;9417;16.484;102.872;2023-07-09T06:27:19;7.47;;;6.28;;
18574;SDS011;9417;16.484;102.872;2023-07-09T06:29:26;8.05;;;6.30;;
18574;SDS011;9417;16.484;102.872;2023-07-09T06:31:34;6.68;;;6.03;;
18574;SDS011;9417;16.484;102.872;2023-07-09T06:33:41;6.90;;;5.78;;
18574;SDS011;9417;16.484;102.872;2023-07-09T06:35:49;10.75;;;8.60;;
18574;SDS011;9417;16.484;102.872;2023-07-09T06:38:01;12.32;;;11.02;;
18574;SDS011;9417;16.484;102.872;2023-07-09T06:40:08;13.43;;;11.55;;
18574;SDS011;9417;16.484;102.872;2023-07-09T06:42:16;11.13;;;10.02;;
18574;SDS011;9417;16.484;102.872;2023-07-09T06:44:35;11.70;;;9.50;;
18574;SDS011;9417;16.484;102.872;2023-07-09T06:46:44;10.23;;;9.23;;
18574;SDS011;9417;16.484;102.872;2023-07-09T06:48:53;10.23;;;9.18;;
18574;SDS011;9417;16.484;102.872;2023-07-09T06:51:00;8.82;;;7.80;;
18574;SDS011;9417;16.484;102.872;2023-07-09T06:53:09;7.78;;;7.07;;
18574;SDS011;9417;16.484;102.872;2023-07-09T06:55:20;7.60;;;6.95;;
18574;SDS011;9417;16.484;102.872;2023-07-09T06:57:27;8.45;;;7.65;;
18574;SDS011;9417;16.484;102.872;2023-07-09T06:59:34;8.38;;;7.00;;
18574;SDS011;9417;16.484;102.872;2023-07-09T07:01:41;7.93;;;7.07;;
18574;SDS011;9417;16.484;102.872;2023-07-09T07:03:49;6.97;;;6.30;;
18574;SDS011;9417;16.484;102.872;2023-07-09T07:05:56;6.43;;;5.82;;
18574;SDS011;9417;16.484;102.872;2023-07-09T07:08:04;8.02;;;7.20;;
18574;SDS011;9417;16.484;102.872;2023-07-09T07:10:12;7.53;;;6.78;;
18574;SDS011;9417;16.484;102.872;2023-07-09T07:12:22;8.38;;;7.53;;
18574;SDS011;9417;16.484;102.872;2023-07-09T07:14:30;8.07;;;7.38;;
18574;SDS011;9417;16.484;102.872;2023-07-09T07:16:37;8.77;;;7.72;;
18574;SDS011;9417;16.484;102.872;2023-07-09T07:18:46;7.65;;;6.95;;
18574;SDS011;9417;16.484;102.872;2023-07-09T07:20:53;7.80;;;7.10;;
18574;SDS011;9417;16.484;102.872;2023-07-09T07:23:00;7.57;;;6.88;;
18574;SDS011;9417;16.484;102.872;2023-07-09T07:25:09;8.68;;;7.30;;
18574;SDS011;9417;16.484;102.872;2023-07-09T07:27:19;7.95;;;7.22;;
18574;SDS011;9417;16.484;102.872;2023-07-09T07:29:26;8.07;;;7.30;;
18574;SDS011;9417;16.484;102.872;2023-07-09T07:31:33;8.45;;;7.20;;
18574;SDS011;9417;16.484;102.872;2023-07-09T07:33:41;8.50;;;7.80;;
18574;SDS011;9417;16.484;102.872;2023-07-09T07:35:49;8.98;;;8.15;;
18574;SDS011;9417;16.484;102.872;2023-07-09T07:38:17;9.00;;;7.32;;
18574;SDS011;9417;16.484;102.872;2023-07-09T07:40:28;7.07;;;6.03;;
18574;SDS011;9417;16.484;102.872;2023-07-09T07:42:39;7.30;;;6.47;;
18574;SDS011;9417;16.484;102.872;2023-07-09T07:44:46;6.50;;;5.88;;
18574;SDS011;9417;16.484;102.872;2023-07-09T07:46:54;6.97;;;5.88;;
18574;SDS011;9417;16.484;102.872;2023-07-09T07:49:10;7.47;;;5.75;;
18574;SDS011;9417;16.484;102.872;2023-07-09T07:51:17;7.28;;;6.57;;
18574;SDS011;9417;16.484;102.872;2023-07-09T07:53:25;6.38;;;5.75;;
18574;SDS011;9417;16.484;102.872;2023-07-09T07:55:34;7.10;;;6.50;;
18574;SDS011;9417;16.484;102.872;2023-07-09T07:57:43;8.13;;;7.32;;
18574;SDS011;9417;16.484;102.872;2023-07-09T07:59:50;8.30;;;6.55;;
18574;SDS011;9417;16.484;102.872;2023-07-09T08:01:57;7.10;;;6.50;;
18574;SDS011;9417;16.484;102.872;2023-07-09T08:04:04;7.65;;;6.45;;
18574;SDS011;9417;16.484;102.872;2023-07-09T08:06:11;7.05;;;6.35;;
18574;SDS011;9417;16.484;102.872;2023-07-09T08:08:19;7.55;;;6.75;;
18574;SDS011;9417;16.484;102.872;2023-07-09T08:10:26;6.68;;;6.07;;
18574;SDS011;9417;16.484;102.872;2023-07-09T08:12:35;7.18;;;6.25;;
18574;SDS011;9417;16.484;102.872;2023-07-09T08:16:51;6.80;;;6.20;;
18574;SDS011;9417;16.484;102.872;2023-07-09T08:18:58;10.00;;;6.85;;
18574;SDS011;9417;16.484;102.872;2023-07-09T08:21:05;7.28;;;6.57;;
18574;SDS011;9417;16.484;102.872;2023-07-09T08:23:13;7.35;;;6.30;;
18574;SDS011;9417;16.484;102.872;2023-07-09T08:25:21;7.43;;;6.72;;
18574;SDS011;9417;16.484;102.872;2023-07-09T08:27:28;7.45;;;6.75;;
18574;SDS011;9417;16.484;102.872;2023-07-09T08:29:38;7.72;;;6.88;;
18574;SDS011;9417;16.484;102.872;2023-07-09T08:31:45;8.32;;;7.13;;
18574;SDS011;9417;16.484;102.872;2023-07-09T08:33:54;7.75;;;6.95;;
18574;SDS011;9417;16.484;102.872;2023-07-09T08:36:01;7.57;;;6.93;;
18574;SDS011;9417;16.484;102.872;2023-07-09T08:38:09;8.15;;;7.15;;
18574;SDS011;9417;16.484;102.872;2023-07-09T08:40:16;8.38;;;7.45;;
18574;SDS011;9417;16.484;102.872;2023-07-09T08:42:26;6.88;;;6.28;;
18574;SDS011;9417;16.484;102.872;2023-07-09T08:45:00;7.82;;;6.95;;
18574;SDS011;9417;16.484;102.872;2023-07-09T08:47:22;7.05;;;6.35;;
18574;SDS011;9417;16.484;102.872;2023-07-09T08:49:40;8.88;;;7.97;;
18574;SDS011;9417;16.484;102.872;2023-07-09T08:51:51;11.57;;;9.90;;
18574;SDS011;9417;16.484;102.872;2023-07-09T08:56:20;20.27;;;16.20;;
18574;SDS011;9417;16.484;102.872;2023-07-09T08:58:31;13.13;;;11.00;;
18574;SDS011;9417;16.484;102.872;2023-07-09T09:00:51;9.15;;;8.23;;
18574;SDS011;9417;16.484;102.872;2023-07-09T09:03:00;9.98;;;8.85;;
18574;SDS011;9417;16.484;102.872;2023-07-09T09:05:14;12.23;;;8.50;;
18574;SDS011;9417;16.484;102.872;2023-07-09T09:07:28;8.68;;;6.93;;
18574;SDS011;9417;16.484;102.872;2023-07-09T09:09:45;7.65;;;5.65;;
18574;SDS011;9417;16.484;102.872;2023-07-09T09:11:59;5.78;;;5.28;;
18574;SDS011;9417;16.484;102.872;2023-07-09T09:14:19;5.63;;;5.05;;
18574;SDS011;9417;16.484;102.872;2023-07-09T09:16:37;6.75;;;5.75;;
18574;SDS011;9417;16.484;102.872;2023-07-09T09:18:55;6.13;;;5.30;;
18574;SDS011;9417;16.484;102.872;2023-07-09T09:21:10;6.25;;;5.38;;
18574;SDS011;9417;16.484;102.872;2023-07-09T09:23:25;8.20;;;6.65;;
18574;SDS011;9417;16.484;102.872;2023-07-09T09:25:42;7.25;;;5.88;;
18574;SDS011;9417;16.484;102.872;2023-07-09T09:28:15;6.88;;;6.28;;
18574;SDS011;9417;16.484;102.872;2023-07-09T09:30:23;21.90;;;19.58;;
18574;SDS011;9417;16.484;102.872;2023-07-09T09:32:34;31.58;;;27.88;;
18574;SDS011;9417;16.484;102.872;2023-07-09T09:34:47;23.90;;;20.17;;
18574;SDS011;9417;16.484;102.872;2023-07-09T09:36:54;18.08;;;16.17;;
18574;SDS011;9417;16.484;102.872;2023-07-09T09:39:03;11.70;;;10.52;;
18574;SDS011;9417;16.484;102.872;2023-07-09T09:41:15;12.90;;;11.70;;
18574;SDS011;9417;16.484;102.872;2023-07-09T09:43:23;6.72;;;5.95;;
18574;SDS011;9417;16.484;102.872;2023-07-09T09:45:43;6.65;;;5.95;;
18574;SDS011;9417;16.484;102.872;2023-07-09T09:48:00;8.23;;;6.85;;
18574;SDS011;9417;16.484;102.872;2023-07-09T09:50:16;8.20;;;6.18;;
18574;SDS011;9417;16.484;102.872;2023-07-09T09:52:30;6.55;;;5.53;;
18574;SDS011;9417;16.484;102.872;2023-07-09T09:54:39;6.40;;;5.70;;
18574;SDS011;9417;16.484;102.872;2023-07-09T09:56:49;7.35;;;5.13;;
18574;SDS011;9417;16.484;102.872;2023-07-09T09:58:56;5.18;;;4.30;;
18574;SDS011;9417;16.484;102.872;2023-07-09T10:01:04;5.60;;;5.00;;
18574;SDS011;9417;16.484;102.872;2023-07-09T10:03:13;6.05;;;5.10;;
18574;SDS011;9417;16.484;102.872;2023-07-09T10:05:21;6.03;;;5.15;;
18574;SDS011;9417;16.484;102.872;2023-07-09T10:07:34;6.75;;;5.03;;
18574;SDS011;9417;16.484;102.872;2023-07-09T10:09:46;7.28;;;5.00;;
18574;SDS011;9417;16.484;102.872;2023-07-09T10:11:57;6.05;;;4.90;;
18574;SDS011;9417;16.484;102.872;2023-07-09T10:14:14;9.45;;;7.72;;
18574;SDS011;9417;16.484;102.872;2023-07-09T10:16:34;17.63;;;15.82;;
18574;SDS011;9417;16.484;102.872;2023-07-09T10:18:49;20.13;;;17.80;;
18574;SDS011;9417;16.484;102.872;2023-07-09T10:21:06;9.07;;;6.22;;
18574;SDS011;9417;16.484;102.872;2023-07-09T10:23:19;8.32;;;5.72;;
18574;SDS011;9417;16.484;102.872;2023-07-09T10:25:35;10.10;;;7.55;;
18574;SDS011;9417;16.484;102.872;2023-07-09T10:27:51;10.95;;;7.38;;
18574;SDS011;9417;16.484;102.872;2023-07-09T10:30:13;9.45;;;6.90;;
18574;SDS011;9417;16.484;102.872;2023-07-09T10:32:33;6.97;;;6.13;;
18574;SDS011;9417;16.484;102.872;2023-07-09T10:34:55;8.70;;;6.55;;
18574;SDS011;9417;16.484;102.872;2023-07-09T10:39:34;10.68;;;7.72;;
18574;SDS011;9417;16.484;102.872;2023-07-09T10:41:43;10.55;;;7.55;;
18574;SDS011;9417;16.484;102.872;2023-07-09T10:43:56;10.80;;;7.32;;
18574;SDS011;9417;16.484;102.872;2023-07-09T10:46:10;10.18;;;7.63;;
18574;SDS011;9417;16.484;102.872;2023-07-09T10:48:26;10.45;;;6.72;;
18574;SDS011;9417;16.484;102.872;2023-07-09T10:50:45;8.77;;;6.50;;
18574;SDS011;9417;16.484;102.872;2023-07-09T10:52:57;9.43;;;7.07;;
18574;SDS011;9417;16.484;102.872;2023-07-09T10:55:13;8.73;;;6.50;;
18574;SDS011;9417;16.484;102.872;2023-07-09T10:57:25;7.15;;;6.45;;
18574;SDS011;9417;16.484;102.872;2023-07-09T10:59:39;8.07;;;6.57;;
18574;SDS011;9417;16.484;102.872;2023-07-09T11:01:48;9.55;;;7.47;;
18574;SDS011;9417;16.484;102.872;2023-07-09T11:04:01;8.60;;;7.70;;
18574;SDS011;9417;16.484;102.872;2023-07-09T11:06:19;8.73;;;7.22;;
18574;SDS011;9417;16.484;102.872;2023-07-09T11:08:34;8.05;;;6.88;;
18574;SDS011;9417;16.484;102.872;2023-07-09T11:10:46;12.35;;;8.63;;
18574;SDS011;9417;16.484;102.872;2023-07-09T11:12:57;9.20;;;6.53;;
18574;SDS011;9417;16.484;102.872;2023-07-09T11:15:09;7.00;;;6.30;;
18574;SDS011;9417;16.484;102.872;2023-07-09T11:17:20;7.90;;;6.55;;
18574;SDS011;9417;16.484;102.872;2023-07-09T11:19:29;7.78;;;6.78;;
18574;SDS011;9417;16.484;102.872;2023-07-09T11:21:44;12.50;;;8.40;;
18574;SDS011;9417;16.484;102.872;2023-07-09T11:24:05;11.07;;;8.85;;
18574;SDS011;9417;16.484;102.872;2023-07-09T11:26:28;13.82;;;10.27;;
18574;SDS011;9417;16.484;102.872;2023-07-09T11:28:37;10.70;;;9.60;;
18574;SDS011;9417;16.484;102.872;2023-07-09T11:30:54;12.90;;;9.85;;
18574;SDS011;9417;16.484;102.872;2023-07-09T11:33:17;14.05;;;10.05;;
18574;SDS011;9417;16.484;102.872;2023-07-09T11:35:27;10.57;;;8.60;;
18574;SDS011;9417;16.484;102.872;2023-07-09T11:37:45;9.90;;;7.57;;
18574;SDS011;9417;16.484;102.872;2023-07-09T11:39:52;12.18;;;7.40;;
18574;SDS011;9417;16.484;102.872;2023-07-09T11:42:22;9.43;;;7.90;;
18574;SDS011;9417;16.484;102.872;2023-07-09T11:44:34;10.98;;;7.43;;
18574;SDS011;9417;16.484;102.872;2023-07-09T11:46:55;10.18;;;7.07;;
18574;SDS011;9417;16.484;102.872;2023-07-09T11:49:21;9.48;;;8.48;;
18574;SDS011;9417;16.484;102.872;2023-07-09T11:51:37;37.67;;;24.17;;
18574;SDS011;9417;16.484;102.872;2023-07-09T11:53:49;31.02;;;20.92;;
18574;SDS011;9417;16.484;102.872;2023-07-09T11:55:58;16.40;;;11.98;;
18574;SDS011;9417;16.484;102.872;2023-07-09T11:58:07;9.25;;;8.35;;
18574;SDS011;9417;16.484;102.872;2023-07-09T12:00:16;11.13;;;8.25;;
18574;SDS011;9417;16.484;102.872;2023-07-09T12:02:26;12.75;;;8.20;;
18574;SDS011;9417;16.484;102.872;2023-07-09T12:04:38;14.10;;;9.38;;
18574;SDS011;9417;16.484;102.872;2023-07-09T12:06:57;13.45;;;8.60;;
18574;SDS011;9417;16.484;102.872;2023-07-09T12:09:08;14.47;;;10.27;;
18574;SDS011;9417;16.484;102.872;2023-07-09T12:11:21;13.77;;;9.45;;
18574;SDS011;9417;16.484;102.872;2023-07-09T12:13:36;12.20;;;9.25;;
18574;SDS011;9417;16.484;102.872;2023-07-09T12:15:48;14.45;;;9.48;;
18574;SDS011;9417;16.484;102.872;2023-07-09T12:17:56;13.90;;;8.98;;
18574;SDS011;9417;16.484;102.872;2023-07-09T12:20:07;12.90;;;9.23;;
18574;SDS011;9417;16.484;102.872;2023-07-09T12:22:20;12.20;;;8.95;;
18574;SDS011;9417;16.484;102.872;2023-07-09T12:24:35;13.82;;;9.23;;
18574;SDS011;9417;16.484;102.872;2023-07-09T12:26:51;12.45;;;9.40;;
18574;SDS011;9417;16.484;102.872;2023-07-09T12:28:59;26.45;;;17.25;;
18574;SDS011;9417;16.484;102.872;2023-07-09T12:31:10;32.63;;;18.50;;
18574;SDS011;9417;16.484;102.872;2023-07-09T12:33:20;31.75;;;19.20;;
18574;SDS011;9417;16.484;102.872;2023-07-09T12:35:28;27.02;;;17.52;;
18574;SDS011;9417;16.484;102.872;2023-07-09T12:37:36;40.72;;;24.10;;
18574;SDS011;9417;16.484;102.872;2023-07-09T12:39:47;54.35;;;31.40;;
18574;SDS011;9417;16.484;102.872;2023-07-09T12:42:00;41.55;;;25.23;;
18574;SDS011;9417;16.484;102.872;2023-07-09T12:44:19;26.40;;;14.15;;
18574;SDS011;9417;16.484;102.872;2023-07-09T12:46:29;17.67;;;12.43;;
18574;SDS011;9417;16.484;102.872;2023-07-09T12:48:37;15.55;;;11.27;;
18574;SDS011;9417;16.484;102.872;2023-07-09T12:50:49;18.25;;;11.88;;
18574;SDS011;9417;16.484;102.872;2023-07-09T12:53:00;22.38;;;14.35;;
18574;SDS011;9417;16.484;102.872;2023-07-09T12:55:20;20.58;;;14.00;;
18574;SDS011;9417;16.484;102.872;2023-07-09T12:57:28;27.65;;;17.05;;
18574;SDS011;9417;16.484;102.872;2023-07-09T12:59:42;23.10;;;15.07;;
18574;SDS011;9417;16.484;102.872;2023-07-09T13:01:55;29.23;;;18.25;;
18574;SDS011;9417;16.484;102.872;2023-07-09T13:04:08;26.17;;;17.02;;
18574;SDS011;9417;16.484;102.872;2023-07-09T13:06:26;25.80;;;16.98;;
18574;SDS011;9417;16.484;102.872;2023-07-09T13:08:40;26.80;;;15.57;;
18574;SDS011;9417;16.484;102.872;2023-07-09T13:10:57;16.50;;;11.60;;
18574;SDS011;9417;16.484;102.872;2023-07-09T13:13:10;15.88;;;11.95;;
18574;SDS011;9417;16.484;102.872;2023-07-09T13:15:20;11.65;;;10.00;;
18574;SDS011;9417;16.484;102.872;2023-07-09T13:17:35;15.23;;;10.32;;
18574;SDS011;9417;16.484;102.872;2023-07-09T13:19:47;14.68;;;9.18;;
18574;SDS011;9417;16.484;102.872;2023-07-09T13:21:57;15.13;;;8.52;;